createdAt,value
2023-01-26T00:35:10.198Z,42.47
2023-01-26T00:36:10.233Z,42.69
2023-01-26T00:37:10.533Z,44.43
2023-01-26T00:38:10.293Z,43.48
2023-01-26T00:39:10.341Z,44.23
2023-01-26T00:40:10.733Z,40.86
2023-01-26T00:41:10.977Z,43.98
2023-01-26T00:42:10.429Z,42.66
2023-01-26T00:43:10.447Z,42.12
2023-01-26T00:44:10.461Z,43.29
2023-01-26T00:45:10.615Z,44.31
2023-01-26T00:46:10.684Z,42.70
2023-01-26T00:47:10.877Z,44.49
2023-01-26T00:48:10.613Z,44.66
2023-01-26T00:49:10.945Z,40.96
2023-01-26T00:50:11.331Z,43.95
2023-01-26T00:51:11.040Z,44.37
2023-01-26T00:52:10.812Z,44.85
2023-01-26T00:53:10.875Z,40.95
2023-01-26T00:54:10.908Z,41.39
2023-01-26T00:55:11.733Z,44.91
2023-01-26T00:56:10.979Z,43.28
2023-01-26T00:57:11.215Z,42.47
2023-01-26T00:58:11.029Z,45.76
2023-01-26T00:59:11.182Z,44.35
2023-01-26T01:00:11.304Z,41.31
2023-01-26T01:01:11.191Z,44.78
2023-01-26T01:02:11.510Z,41.61
2023-01-26T01:03:11.196Z,43.08
2023-01-26T01:04:11.485Z,42.52
2023-01-26T01:05:11.261Z,42.55
2023-01-26T01:06:11.967Z,43.02
2023-01-26T01:07:11.540Z,45.51
2023-01-26T01:08:11.367Z,45.32
2023-01-26T01:09:11.414Z,41.34
2023-01-26T01:10:11.740Z,41.28
2023-01-26T01:11:11.491Z,40.89
2023-01-26T01:13:11.565Z,43.43
2023-01-26T01:14:11.618Z,41.21
2023-01-26T01:15:11.644Z,43.56
2023-01-26T01:16:11.710Z,43.63
2023-01-26T01:17:11.682Z,41.82
2023-01-26T01:40:12.759Z,42.30
2023-01-26T01:41:12.541Z,42.36
2023-01-26T01:42:12.572Z,39.69
2023-01-26T01:43:12.596Z,42.80
2023-01-26T01:45:12.843Z,39.73
2023-01-26T01:46:12.709Z,41.61
2023-01-26T01:47:12.673Z,42.71
2023-01-26T01:48:12.664Z,45.20
2023-01-26T01:49:12.694Z,42.43
2023-01-26T01:50:12.840Z,39.83
2023-01-26T01:51:12.751Z,41.42
2023-01-26T01:52:12.744Z,42.24
2023-01-26T01:53:12.777Z,40.34
2023-01-26T01:54:12.806Z,40.37
2023-01-26T01:55:12.821Z,40.10
2023-01-26T01:56:14.513Z,40.75
2023-01-26T01:57:12.867Z,40.25
2023-01-26T01:58:13.784Z,41.84
2023-01-26T01:59:13.014Z,41.44
2023-01-26T02:00:13.452Z,41.98
2023-01-26T02:01:13.081Z,41.36
2023-01-26T02:02:13.271Z,41.18
2023-01-26T02:03:13.090Z,40.35
2023-01-26T02:04:13.271Z,41.33
2023-01-26T02:05:13.106Z,40.88
2023-01-26T02:06:13.134Z,42.08
2023-01-26T02:07:13.169Z,40.47
2023-01-26T02:08:13.242Z,42.33
2023-01-26T02:09:13.576Z,40.94
2023-01-26T02:10:13.409Z,40.04
2023-01-26T02:11:13.350Z,41.71
2023-01-26T02:12:13.389Z,39.48
2023-01-26T02:13:13.485Z,40.67
2023-01-26T02:14:13.513Z,39.25
2023-01-26T02:15:13.777Z,38.20
2023-01-26T02:16:13.625Z,39.64
2023-01-26T02:17:13.579Z,39.45
2023-01-26T02:18:13.593Z,40.85
2023-01-26T02:19:13.651Z,40.96
2023-01-26T02:20:13.954Z,41.11
2023-01-26T02:21:14.572Z,41.50
2023-01-26T02:22:13.818Z,38.94
2023-01-26T02:23:13.867Z,42.57
2023-01-26T02:24:14.625Z,39.42
2023-01-26T02:25:14.281Z,37.47
2023-01-26T02:26:14.046Z,42.20
2023-01-26T02:27:14.254Z,37.98
2023-01-26T02:28:14.145Z,40.80
2023-01-26T02:29:14.222Z,41.37
2023-01-26T02:30:14.231Z,39.93
2023-01-26T02:31:14.415Z,39.52
2023-01-26T02:32:15.315Z,41.14
2023-01-26T02:33:14.313Z,41.42
2023-01-26T02:34:14.334Z,40.57
2023-01-26T02:35:14.784Z,40.59
2023-01-26T02:37:14.410Z,37.11
2023-01-26T02:38:15.018Z,42.44
2023-01-26T02:39:14.655Z,39.48
2023-01-26T02:40:14.519Z,40.29
2023-01-26T02:41:14.459Z,40.29
2023-01-26T02:42:14.457Z,40.23
2023-01-26T02:43:14.497Z,39.74
2023-01-26T02:44:14.502Z,40.43
2023-01-26T02:45:14.521Z,37.79
2023-01-26T02:46:15.864Z,39.78
2023-01-26T02:47:14.593Z,38.23
2023-01-26T02:48:14.609Z,41.48
2023-01-26T02:49:14.637Z,39.91
2023-01-26T02:50:15.524Z,41.59
2023-01-26T02:51:14.735Z,42.63
2023-01-26T02:52:14.778Z,39.57
2023-01-26T02:53:14.843Z,38.85
2023-01-26T02:54:14.853Z,39.76
2023-01-26T02:55:14.895Z,39.39
2023-01-26T02:56:15.781Z,37.82
2023-01-26T02:57:15.035Z,38.52
2023-01-26T02:58:14.988Z,39.25
2023-01-26T02:59:15.024Z,40.68
2023-01-26T03:00:15.067Z,42.20
2023-01-26T03:01:15.137Z,37.67
2023-01-26T03:02:16.274Z,41.02
2023-01-26T03:03:15.247Z,41.09
2023-01-26T03:04:15.180Z,40.81
2023-01-26T03:26:15.938Z,36.46
2023-01-26T03:28:15.982Z,38.90
2023-01-26T03:29:16.031Z,39.27
2023-01-26T03:30:16.327Z,39.98
2023-01-26T03:31:16.124Z,39.58
2023-01-26T03:32:16.419Z,38.92
2023-01-26T05:08:21.829Z,38.87
2023-01-26T05:19:21.426Z,40.36
2023-01-26T05:20:21.649Z,38.30
2023-01-26T05:21:21.527Z,41.33
2023-01-26T05:22:21.591Z,36.95
2023-01-26T05:23:21.633Z,38.34
2023-01-26T05:24:21.711Z,38.79
2023-01-26T05:25:21.735Z,37.84
2023-01-26T05:26:21.807Z,37.38
2023-01-26T05:27:22.673Z,38.80
2023-01-26T05:28:21.967Z,39.01
2023-01-26T05:29:22.014Z,38.28
2023-01-26T05:30:22.065Z,39.92
2023-01-26T05:31:22.101Z,37.23
2023-01-26T05:32:22.295Z,39.00
2023-01-26T05:33:22.248Z,38.74
2023-01-26T05:34:22.442Z,40.40
2023-01-26T05:35:22.346Z,39.94
2023-01-26T05:36:22.404Z,39.45
2023-01-26T05:37:22.478Z,39.78
2023-01-26T05:38:22.675Z,38.89
2023-01-26T05:39:22.588Z,38.62
2023-01-26T05:40:22.664Z,38.55
2023-01-26T05:41:22.731Z,38.74
2023-01-26T05:42:23.755Z,38.81
2023-01-26T05:43:22.856Z,37.14
2023-01-26T05:44:23.023Z,41.40
2023-01-26T05:45:22.976Z,39.07
2023-01-26T05:46:23.051Z,38.82
2023-01-26T05:47:23.245Z,40.96
2023-01-26T05:48:23.166Z,36.79
2023-01-26T05:49:23.234Z,39.78
2023-01-26T05:50:23.292Z,40.32
2023-01-26T05:51:23.354Z,38.65
2023-01-26T05:52:23.413Z,37.48
2023-01-26T05:53:23.473Z,37.99
2023-01-26T05:54:23.538Z,39.15
2023-01-26T05:55:23.606Z,38.46
2023-01-26T05:56:23.670Z,40.62
2023-01-26T05:57:24.589Z,39.48
2023-01-26T05:58:23.920Z,39.99
2023-01-26T05:59:23.883Z,39.10
2023-01-26T06:00:23.937Z,39.73
2023-01-26T06:01:24.133Z,40.67
2023-01-26T06:02:24.148Z,38.11
2023-01-26T06:03:24.382Z,40.19
2023-01-26T06:04:24.216Z,40.01
2023-01-26T06:05:24.367Z,35.01
2023-01-26T06:06:24.327Z,36.94
2023-01-26T06:07:24.384Z,39.34
2023-01-26T06:08:24.504Z,38.41
2023-01-26T06:09:27.262Z,36.66
2023-01-26T06:10:24.521Z,40.46
2023-01-26T06:11:24.609Z,39.55
2023-01-26T06:12:24.530Z,38.71
2023-01-26T06:13:24.552Z,38.58
2023-01-26T06:14:24.644Z,36.91
2023-01-26T06:15:24.536Z,37.41
2023-01-26T07:04:26.416Z,71.94
2023-01-26T07:05:26.455Z,71.53
2023-01-26T07:06:26.506Z,73.00
2023-01-26T07:07:26.560Z,73.19
2023-01-26T07:08:26.619Z,70.74
2023-01-26T07:09:26.638Z,73.99
2023-01-26T07:10:26.707Z,75.11
2023-01-26T07:11:26.760Z,72.94
2023-01-26T07:12:26.826Z,73.64
2023-01-26T07:13:26.861Z,73.32
2023-01-26T07:14:26.919Z,71.01
2023-01-26T07:15:26.973Z,72.82
2023-01-26T07:16:27.084Z,71.76
2023-01-26T07:25:27.502Z,66.34
2023-01-26T09:55:42.504Z,25.00
2023-01-26T09:56:42.405Z,25.47
2023-01-26T09:57:43.302Z,25.63
2023-01-26T09:58:42.165Z,25.00
2023-01-26T09:59:42.048Z,25.00
2023-01-26T10:00:41.938Z,25.49
2023-01-26T10:01:41.852Z,25.00
2023-01-26T10:02:41.744Z,27.07
2023-01-26T10:03:41.609Z,26.17
2023-01-26T10:04:41.507Z,26.20
2023-01-26T10:07:43.750Z,25.49
2023-01-26T11:48:31.539Z,57.81
2023-01-26T11:49:31.491Z,59.52
2023-01-26T11:50:31.438Z,73.60
2023-01-26T12:47:26.523Z,62.74
2023-01-26T12:48:26.372Z,62.94
2023-01-26T12:49:26.316Z,63.08
2023-01-26T12:50:26.124Z,61.68
2023-01-26T12:51:26.017Z,61.94
2023-01-26T12:52:25.884Z,62.50
2023-01-26T12:53:25.753Z,59.18
2023-01-26T12:54:25.633Z,58.75
2023-01-26T13:02:24.787Z,57.45
2023-01-26T13:03:24.635Z,59.89
2023-01-26T13:04:24.577Z,60.91
2023-01-26T13:05:24.511Z,56.70
2023-01-26T13:06:24.392Z,60.01
2023-01-26T13:07:24.318Z,54.44
2023-01-26T13:08:24.252Z,55.80
2023-01-26T13:09:24.164Z,55.38
2023-01-26T13:10:24.093Z,58.10
2023-01-26T13:12:23.957Z,52.74
2023-01-26T13:13:23.879Z,54.99
2023-01-26T13:14:23.808Z,52.22
2023-01-26T13:15:23.730Z,56.98
2023-01-26T13:16:23.715Z,51.75
2023-01-26T13:17:23.589Z,50.37
2023-01-26T13:18:23.532Z,48.92
2023-01-26T13:19:23.453Z,49.12
2023-01-26T13:20:23.386Z,48.52
2023-01-26T13:21:23.328Z,49.35
2023-01-26T13:22:23.259Z,49.29
2023-01-26T13:44:22.064Z,40.91
2023-01-26T13:52:21.646Z,37.71
2023-01-26T13:53:21.600Z,35.43
2023-01-26T13:54:21.555Z,35.01
2023-01-26T13:55:21.498Z,36.62
2023-01-26T13:56:21.456Z,33.04
2023-01-26T15:37:12.509Z,28.97
2023-01-26T15:38:12.406Z,29.12
2023-01-26T15:39:12.269Z,30.59
2023-01-26T15:40:15.085Z,29.21
2023-01-26T15:41:12.068Z,30.13
2023-01-26T15:42:11.933Z,30.20
2023-01-26T15:43:11.833Z,30.25
2023-01-26T15:44:11.710Z,28.39
2023-01-26T15:45:11.798Z,27.95
2023-01-26T15:46:11.512Z,28.02
2023-01-26T17:13:02.732Z,27.02
2023-01-26T17:14:02.657Z,27.08
2023-01-26T17:15:02.562Z,25.91
2023-01-26T17:16:02.510Z,29.46
2023-01-26T17:17:02.405Z,25.15
2023-01-26T17:18:02.325Z,26.31
2023-01-26T17:19:02.228Z,28.26
2023-01-26T17:20:17.567Z,29.17
2023-01-26T17:21:03.073Z,29.39
2023-01-26T17:22:01.937Z,29.77
2023-01-26T17:23:01.804Z,28.90
2023-01-26T17:24:01.703Z,27.79
2023-01-26T17:25:01.616Z,27.25
2023-01-26T17:26:01.494Z,27.53
2023-01-26T18:30:56.250Z,29.47
2023-01-26T18:32:56.075Z,28.53
2023-01-26T18:33:56.014Z,28.61
2023-01-26T18:34:55.951Z,26.74
2023-01-26T18:35:55.863Z,28.62
2023-01-26T18:36:55.776Z,30.11
2023-01-26T18:37:55.712Z,28.77
2023-01-26T18:38:55.638Z,28.79
2023-01-26T18:39:55.571Z,30.23
2023-01-26T18:40:55.485Z,26.21
2023-01-26T18:41:55.404Z,29.66
2023-01-26T18:42:55.365Z,31.66
2023-01-26T18:43:55.272Z,27.70
2023-01-26T18:44:55.210Z,27.71
2023-01-26T18:45:55.187Z,29.09
2023-01-26T18:46:55.072Z,27.43
2023-01-26T18:47:54.993Z,27.20
2023-01-26T18:48:54.949Z,30.87
2023-01-26T18:49:54.859Z,29.30
2023-01-26T18:50:54.784Z,31.15
2023-01-26T18:51:55.675Z,31.27
2023-01-26T18:52:54.569Z,30.47
2023-01-26T18:53:54.441Z,31.66
2023-01-26T18:54:54.349Z,27.57
2023-01-26T18:55:54.237Z,31.46
2023-01-26T18:56:54.116Z,30.28
2023-01-26T18:57:54.012Z,27.56
2023-01-26T18:58:54.015Z,29.05
2023-01-26T18:59:53.789Z,27.94
2023-01-26T19:00:53.689Z,26.79
2023-01-26T19:01:53.594Z,29.74
2023-01-26T19:02:53.453Z,29.02
2023-01-26T19:03:53.349Z,29.89
2023-01-26T19:04:53.388Z,31.11
2023-01-26T19:05:53.204Z,28.36
2023-01-26T19:06:53.130Z,28.42
2023-01-26T19:07:53.074Z,28.42
2023-01-26T19:08:52.993Z,26.71
2023-01-26T19:09:52.943Z,25.85
2023-01-26T19:10:52.866Z,25.93
2023-01-26T19:11:52.806Z,27.88
2023-01-26T19:12:52.762Z,28.12
2023-01-26T19:13:52.664Z,25.87
2023-01-26T19:14:52.576Z,29.11
2023-01-26T19:15:52.504Z,31.59
2023-01-26T19:16:52.496Z,27.72
2023-01-26T19:17:52.375Z,26.41
2023-01-26T19:18:52.322Z,28.02
2023-01-26T19:19:52.258Z,27.13
2023-01-26T19:20:52.175Z,28.46
2023-01-26T19:21:52.134Z,29.79
2023-01-26T19:22:52.049Z,29.36
2023-01-26T19:23:52.036Z,27.01
2023-01-26T19:24:51.923Z,25.41
2023-01-26T19:25:51.913Z,28.36
2023-01-26T19:26:51.827Z,30.68
2023-01-26T19:27:51.744Z,29.64
2023-01-26T19:28:51.692Z,27.85
2023-01-26T19:29:51.614Z,27.92
2023-01-26T19:30:51.598Z,29.76
2023-01-26T19:31:51.490Z,30.15
2023-01-26T19:32:51.401Z,31.67
2023-01-26T19:33:51.319Z,31.04
2023-01-26T19:34:51.254Z,30.23
2023-01-26T19:35:51.192Z,31.73
2023-01-26T19:36:51.120Z,30.51
2023-01-26T19:37:51.055Z,34.11
2023-01-26T19:38:50.994Z,33.52
2023-01-26T19:39:50.900Z,33.33
2023-01-26T19:40:50.826Z,30.90
2023-01-26T19:41:50.769Z,33.82
2023-01-26T19:42:50.696Z,32.88
2023-01-26T19:43:50.651Z,32.19
2023-01-26T19:44:50.558Z,31.49
2023-01-26T19:45:50.572Z,32.30
2023-01-26T19:46:50.440Z,32.20
2023-01-26T19:47:50.374Z,33.54
2023-01-26T19:48:50.306Z,31.54
2023-01-26T19:49:50.244Z,31.91
2023-01-26T19:50:50.170Z,32.35
2023-01-26T19:51:50.118Z,32.64
2023-01-26T19:52:50.054Z,32.79
2023-01-26T19:53:49.987Z,34.56
2023-01-26T19:54:49.934Z,34.02
2023-01-26T19:55:49.849Z,31.50
2023-01-26T19:56:49.788Z,32.13
2023-01-26T19:57:49.727Z,36.14
2023-01-26T19:58:49.653Z,33.23
2023-01-26T19:59:49.625Z,29.87
2023-01-26T20:00:50.495Z,30.13
2023-01-26T20:01:49.381Z,30.62
2023-01-26T20:02:49.283Z,30.93
2023-01-26T20:03:49.153Z,32.68
2023-01-26T20:04:49.055Z,31.11
2023-01-26T20:05:48.931Z,31.05
2023-01-26T20:06:48.840Z,30.84
2023-01-26T20:07:48.706Z,31.12
2023-01-26T20:08:48.598Z,32.48
2023-01-26T20:09:50.780Z,30.58
2023-01-26T20:10:48.392Z,31.12
2023-01-26T20:11:48.361Z,32.00
2023-01-26T20:12:48.291Z,30.52
2023-01-26T20:13:48.246Z,32.06
2023-01-26T20:14:48.174Z,30.94
2023-01-26T20:15:48.115Z,29.68
2023-01-26T20:16:48.136Z,27.10
2023-01-26T20:17:48.016Z,31.70
2023-01-26T20:18:47.955Z,31.36
2023-01-26T20:19:48.512Z,29.17
2023-01-26T20:20:47.847Z,30.12
2023-01-26T20:21:47.794Z,30.36
2023-01-26T20:22:47.737Z,31.96
2023-01-26T20:23:54.243Z,29.83
2023-01-26T20:24:48.534Z,30.08
2023-01-26T20:25:47.461Z,30.30
2023-01-26T20:26:47.325Z,30.49
2023-01-26T20:27:47.260Z,28.22
2023-01-26T20:28:47.121Z,32.93
2023-01-26T20:29:47.992Z,32.55
2023-01-26T20:30:46.926Z,31.21
2023-01-26T20:31:46.925Z,29.74
2023-01-26T20:32:46.686Z,27.34
2023-01-26T20:33:46.584Z,27.84
2023-01-26T20:34:46.500Z,28.84
2023-01-26T20:35:46.439Z,27.81
2023-01-26T20:36:46.396Z,29.21
2023-01-26T20:37:46.338Z,29.00
2023-01-26T20:38:46.285Z,30.64
2023-01-26T20:39:47.021Z,29.16
2023-01-26T20:40:46.157Z,26.20
2023-01-26T20:41:46.092Z,27.94
2023-01-26T20:42:46.046Z,30.86
2023-01-26T20:43:59.927Z,27.03
2023-01-26T20:44:46.857Z,27.21
2023-01-26T20:45:45.784Z,28.02
2023-01-26T20:46:46.505Z,28.28
2023-01-26T20:47:45.540Z,27.27
2023-01-26T20:48:45.422Z,29.50
2023-01-26T20:49:45.322Z,27.62
2023-01-26T20:50:45.210Z,25.33
2023-01-26T20:51:45.116Z,27.65
2023-01-26T20:52:44.997Z,26.81
2023-01-26T20:53:44.894Z,31.79
2023-01-26T20:54:44.788Z,27.25
2023-01-26T20:55:44.752Z,29.34
2023-01-26T20:56:44.686Z,28.83
2023-01-26T20:57:44.633Z,28.50
2023-01-26T20:58:44.588Z,26.24
2023-01-26T20:59:44.533Z,28.86
2023-01-26T21:00:44.528Z,28.89
2023-01-26T21:01:44.406Z,29.08
2023-01-26T21:02:44.351Z,25.77
2023-01-26T21:03:44.314Z,28.39
2023-01-26T21:04:44.281Z,31.05
2023-01-26T21:05:44.197Z,25.01
2023-01-26T21:06:44.144Z,30.59
2023-01-26T21:07:44.077Z,30.65
2023-01-26T21:08:44.032Z,30.66
2023-01-26T21:09:43.980Z,31.73
2023-01-26T21:10:43.949Z,27.65
2023-01-26T21:11:43.879Z,26.66
2023-01-26T21:12:43.906Z,29.73
2023-01-26T21:13:43.780Z,28.38
2023-01-26T21:14:45.429Z,27.25
2023-01-26T21:15:43.640Z,28.94
2023-01-26T21:16:43.683Z,27.69
2023-01-26T21:17:43.557Z,30.87
2023-01-26T21:18:43.504Z,30.19
2023-01-26T21:19:43.446Z,27.25
2023-01-26T21:20:43.382Z,27.66
2023-01-26T21:21:43.330Z,27.40
2023-01-26T21:22:43.278Z,26.68
2023-01-26T21:23:43.235Z,28.12
2023-01-26T21:24:43.175Z,27.10
2023-01-26T21:25:43.120Z,28.36
2023-01-26T21:26:43.069Z,26.90
2023-01-26T21:27:43.033Z,28.12
2023-01-26T21:28:42.998Z,27.84
2023-01-26T21:29:42.907Z,29.55
2023-01-26T21:30:42.870Z,27.37
2023-01-26T21:31:42.836Z,29.20
2023-01-26T21:32:42.757Z,29.16
2023-01-26T21:33:42.710Z,28.15
2023-01-26T21:34:44.511Z,28.59
2023-01-26T21:35:42.632Z,29.69
2023-01-26T21:36:42.546Z,30.41
2023-01-26T21:37:42.489Z,28.50
2023-01-26T21:38:42.425Z,27.25
2023-01-26T21:39:42.395Z,28.10
2023-01-26T21:40:42.331Z,29.69
2023-01-26T21:41:42.286Z,29.37
2023-01-26T21:42:42.275Z,30.00
2023-01-26T21:43:42.184Z,27.78
2023-01-26T21:44:42.148Z,27.48
2023-01-26T21:45:42.121Z,30.38
2023-01-26T21:46:42.069Z,27.31
2023-01-26T21:47:42.003Z,28.29
2023-01-26T21:48:41.943Z,29.10
2023-01-26T21:49:42.513Z,25.73
2023-01-26T21:50:41.848Z,28.71
2023-01-26T21:51:41.817Z,30.32
2023-01-26T21:52:41.759Z,29.57
2023-01-26T21:53:41.709Z,28.90
2023-01-26T21:54:41.652Z,27.91
2023-01-26T21:55:41.577Z,28.53
2023-01-26T21:56:41.544Z,28.41
2023-01-26T21:57:41.499Z,26.47
2023-01-26T21:58:41.449Z,31.10
2023-01-26T21:59:41.381Z,28.04
2023-01-26T22:00:41.384Z,32.98
2023-01-26T22:01:41.312Z,31.50
2023-01-26T22:02:41.266Z,30.44
2023-01-26T22:03:41.232Z,30.04
2023-01-26T22:04:41.167Z,28.57
2023-01-26T22:05:41.133Z,31.04
2023-01-26T22:06:41.064Z,25.64
2023-01-26T22:07:41.046Z,29.49
2023-01-26T22:08:40.986Z,29.74
2023-01-26T22:09:40.926Z,32.49
2023-01-26T22:10:40.897Z,29.57
2023-01-26T22:11:40.820Z,30.64
2023-01-26T22:12:40.759Z,29.03
2023-01-26T22:13:40.678Z,28.72
2023-01-26T22:14:40.618Z,30.36
2023-01-26T22:15:40.537Z,31.42
2023-01-26T22:16:40.488Z,28.39
2023-01-26T22:17:40.426Z,30.37
2023-01-26T22:18:40.355Z,31.63
2023-01-26T22:19:40.284Z,27.10
2023-01-26T22:20:40.222Z,29.20
2023-01-26T22:21:40.145Z,29.95
2023-01-26T22:22:40.091Z,29.01
2023-01-26T22:23:40.021Z,30.03
2023-01-26T22:24:39.969Z,29.01
2023-01-26T22:25:39.936Z,30.29
2023-01-26T22:26:39.891Z,30.87
2023-01-26T22:27:39.844Z,28.15
2023-01-26T22:28:39.797Z,29.14
2023-01-26T22:29:39.756Z,28.01
2023-01-26T22:30:39.747Z,32.52
2023-01-26T22:31:39.715Z,27.97
2023-01-26T22:32:39.649Z,32.19
2023-01-26T22:33:39.612Z,31.57
2023-01-26T22:34:39.593Z,29.70
2023-01-26T22:35:39.520Z,28.80
2023-01-26T22:37:39.444Z,27.82
